createdAt,value
2023-05-24T00:03:02.463Z,73.60
2023-05-24T00:13:01.519Z,74.10
2023-05-24T00:23:00.513Z,74.00
2023-05-24T00:32:59.596Z,74.00
2023-05-24T00:42:58.608Z,74.10
2023-05-24T00:52:57.534Z,76.30
2023-05-24T01:02:56.704Z,77.50
2023-05-24T01:12:56.056Z,77.20
2023-05-24T01:22:54.626Z,77.70
2023-05-24T01:32:53.578Z,78.90
2023-05-24T01:42:52.696Z,79.80
2023-05-24T01:52:51.650Z,79.40
2023-05-24T02:02:51.035Z,79.20
2023-05-24T02:12:50.908Z,79.40
2023-05-24T02:22:49.592Z,79.50
2023-05-24T02:32:48.716Z,79.60
2023-05-24T02:42:47.610Z,80.40
2023-05-24T02:52:46.660Z,80.30
2023-05-24T03:02:48.460Z,80.40
2023-05-24T03:12:47.961Z,80.60
2023-05-24T03:22:46.808Z,80.90
2023-05-24T03:32:45.960Z,82.10
2023-05-24T03:42:45.872Z,82.60
2023-05-24T03:52:44.698Z,82.40
2023-05-24T04:02:43.665Z,82.40
2023-05-24T04:12:42.749Z,82.90
2023-05-24T04:22:41.805Z,83.60
2023-05-24T04:32:41.153Z,84.10
2023-05-24T04:42:39.954Z,84.70
2023-05-24T04:52:38.819Z,85.10
2023-05-24T05:02:37.771Z,86.00
2023-05-24T05:12:36.706Z,85.00
2023-05-24T05:22:35.867Z,85.10
2023-05-24T05:32:34.709Z,85.50
2023-05-24T05:42:33.704Z,85.70
2023-05-24T05:52:32.703Z,85.70
2023-05-24T06:02:31.933Z,84.50
2023-05-24T06:12:30.710Z,84.10
2023-05-24T06:22:29.848Z,82.60
2023-05-24T06:32:28.801Z,81.50
2023-05-24T06:42:27.720Z,83.30
2023-05-24T06:52:26.735Z,82.40
2023-05-24T07:02:28.142Z,82.90
2023-05-24T07:12:26.807Z,82.30
2023-05-24T07:22:27.633Z,79.50
2023-05-24T07:32:27.311Z,75.80
2023-05-24T07:42:26.769Z,77.10
2023-05-24T07:52:25.867Z,78.20
2023-05-24T08:02:26.195Z,72.30
2023-05-24T08:12:25.605Z,72.30
2023-05-24T08:22:24.766Z,68.10
2023-05-24T08:32:23.812Z,67.20
2023-05-24T08:42:22.794Z,68.50
2023-05-24T08:52:21.793Z,67.70
2023-05-24T09:02:20.941Z,66.50
2023-05-24T09:12:35.471Z,66.00
2023-05-24T09:22:23.735Z,65.50
2023-05-24T09:32:23.909Z,61.60
2023-05-24T09:42:24.102Z,63.60
2023-05-24T09:52:22.829Z,64.60
2023-05-24T10:02:22.553Z,58.50
2023-05-24T10:12:22.718Z,60.00
2023-05-24T10:22:22.743Z,60.40
2023-05-24T10:32:22.697Z,59.00
2023-05-24T10:42:21.898Z,56.90
2023-05-24T10:52:20.899Z,56.80
2023-05-24T11:02:19.961Z,56.80
2023-05-24T11:12:20.302Z,56.00
2023-05-24T11:22:18.915Z,56.90
2023-05-24T11:32:17.988Z,56.90
2023-05-24T11:42:17.006Z,58.60
2023-05-24T11:52:16.022Z,59.00
2023-05-24T12:02:14.973Z,59.50
2023-05-24T12:12:13.942Z,59.40
2023-05-24T12:22:12.958Z,56.10
2023-05-24T12:32:12.455Z,57.10
2023-05-24T12:42:12.220Z,54.40
2023-05-24T12:52:12.403Z,52.90
2023-05-24T13:02:11.975Z,51.60
2023-05-24T13:12:11.293Z,52.60
2023-05-24T13:22:10.136Z,53.10
2023-05-24T13:32:09.064Z,52.10
2023-05-24T13:42:08.561Z,52.70
2023-05-24T13:52:07.000Z,53.30
2023-05-24T14:02:06.151Z,53.30
2023-05-24T14:12:06.933Z,53.10
2023-05-24T14:22:06.014Z,52.90
2023-05-24T14:32:05.086Z,51.40
2023-05-24T14:42:04.044Z,52.60
2023-05-24T14:52:03.053Z,52.50
2023-05-24T15:02:02.031Z,52.20
2023-05-24T15:12:03.355Z,53.60
2023-05-24T15:22:02.072Z,54.20
2023-05-24T15:32:01.655Z,54.10
2023-05-24T15:42:00.482Z,54.50
2023-05-24T15:52:04.295Z,55.20
2023-05-24T16:02:00.204Z,53.10
2023-05-24T16:12:00.870Z,47.40
2023-05-24T16:22:00.115Z,40.30
2023-05-24T16:31:59.145Z,47.40
2023-05-24T16:42:00.291Z,50.80
2023-05-24T16:51:59.132Z,53.50
2023-05-24T17:01:58.205Z,54.50
2023-05-24T17:11:57.146Z,53.70
2023-05-24T17:21:56.591Z,55.40
2023-05-24T17:31:55.190Z,56.50
2023-05-24T17:41:54.159Z,56.60
2023-05-24T17:51:53.195Z,57.00
2023-05-24T18:01:52.293Z,57.70
2023-05-24T18:11:51.687Z,58.30
2023-05-24T18:21:50.289Z,59.00
2023-05-24T18:31:49.228Z,59.80
2023-05-24T18:41:48.241Z,60.60
2023-05-24T18:51:47.190Z,61.10
2023-05-24T19:01:46.251Z,61.60
2023-05-24T19:11:47.535Z,62.40
2023-05-24T19:21:46.202Z,62.70
2023-05-24T19:31:46.328Z,63.00
2023-05-24T19:41:45.276Z,63.90
2023-05-24T19:51:44.204Z,65.20
2023-05-24T20:01:43.262Z,66.70
2023-05-24T20:11:42.418Z,66.90
2023-05-24T20:21:41.238Z,67.70
2023-05-24T20:31:40.913Z,68.50
2023-05-24T20:41:39.296Z,69.50
2023-05-24T20:51:38.275Z,69.90
2023-05-24T21:01:37.367Z,70.50
2023-05-24T21:11:36.409Z,71.10
2023-05-24T21:21:35.565Z,71.70
2023-05-24T21:31:35.472Z,73.10
2023-05-24T21:41:34.413Z,73.30
2023-05-24T21:51:33.385Z,73.40
2023-05-24T22:01:32.305Z,74.00
2023-05-24T22:11:31.428Z,74.50
2023-05-24T22:21:32.976Z,75.00
2023-05-24T22:31:33.259Z,75.70
2023-05-24T22:41:32.430Z,76.40
2023-05-24T22:51:31.350Z,76.70
2023-05-24T23:01:31.703Z,76.90
2023-05-24T23:11:32.200Z,77.10
2023-05-24T23:21:33.243Z,77.80
2023-05-24T23:31:32.369Z,78.50
2023-05-24T23:41:31.397Z,78.90
2023-05-24T23:51:30.457Z,78.90
